sensor_id;sensor_type;location;lat;lon;timestamp;P1;durP1;ratioP1;P2;durP2;ratioP2
5414;SDS011;2730;51.512;7.504;2022-07-29T05:00:39;15.77;;;2.73;;
5414;SDS011;2730;51.512;7.504;2022-07-29T05:03:09;18.53;;;2.83;;
5414;SDS011;2730;51.512;7.504;2022-07-29T05:05:36;10.47;;;2.60;;
5414;SDS011;2730;51.512;7.504;2022-07-29T05:08:03;10.43;;;2.93;;
5414;SDS011;2730;51.512;7.504;2022-07-29T05:10:30;5.70;;;2.20;;
5414;SDS011;2730;51.512;7.504;2022-07-29T05:12:57;4.50;;;1.80;;
5414;SDS011;2730;51.512;7.504;2022-07-29T05:15:28;5.13;;;2.10;;
5414;SDS011;2730;51.512;7.504;2022-07-29T05:18:00;7.83;;;1.67;;
5414;SDS011;2730;51.512;7.504;2022-07-29T05:20:27;3.83;;;1.80;;
5414;SDS011;2730;51.512;7.504;2022-07-29T05:23:00;5.00;;;2.33;;
5414;SDS011;2730;51.512;7.504;2022-07-29T05:25:30;2.93;;;1.60;;
5414;SDS011;2730;51.512;7.504;2022-07-29T05:27:57;6.10;;;2.10;;
5414;SDS011;2730;51.512;7.504;2022-07-29T05:30:24;2.03;;;1.93;;
5414;SDS011;2730;51.512;7.504;2022-07-29T05:32:51;8.03;;;2.60;;
5414;SDS011;2730;51.512;7.504;2022-07-29T05:35:19;5.23;;;2.17;;
5414;SDS011;2730;51.512;7.504;2022-07-29T05:37:46;4.10;;;1.97;;
5414;SDS011;2730;51.512;7.504;2022-07-29T05:40:13;8.30;;;2.40;;
5414;SDS011;2730;51.512;7.504;2022-07-29T05:42:39;4.60;;;2.07;;
5414;SDS011;2730;51.512;7.504;2022-07-29T05:45:07;2.70;;;1.90;;
5414;SDS011;2730;51.512;7.504;2022-07-29T05:47:37;7.37;;;1.90;;
5414;SDS011;2730;51.512;7.504;2022-07-29T05:50:04;5.30;;;2.13;;
5414;SDS011;2730;51.512;7.504;2022-07-29T05:55:44;7.83;;;2.27;;
5414;SDS011;2730;51.512;7.504;2022-07-29T05:58:11;5.33;;;1.93;;
5414;SDS011;2730;51.512;7.504;2022-07-29T06:00:37;4.20;;;2.00;;
5414;SDS011;2730;51.512;7.504;2022-07-29T06:03:04;4.80;;;2.20;;
5414;SDS011;2730;51.512;7.504;2022-07-29T06:05:31;5.27;;;1.83;;
5414;SDS011;2730;51.512;7.504;2022-07-29T06:07:59;4.23;;;2.13;;
5414;SDS011;2730;51.512;7.504;2022-07-29T06:10:26;5.97;;;2.43;;
5414;SDS011;2730;51.512;7.504;2022-07-29T06:12:53;5.67;;;2.20;;
5414;SDS011;2730;51.512;7.504;2022-07-29T06:15:20;2.50;;;1.77;;
5414;SDS011;2730;51.512;7.504;2022-07-29T06:17:47;3.33;;;2.00;;
5414;SDS011;2730;51.512;7.504;2022-07-29T06:20:14;6.90;;;2.93;;
5414;SDS011;2730;51.512;7.504;2022-07-29T06:22:41;10.80;;;3.30;;
5414;SDS011;2730;51.512;7.504;2022-07-29T06:25:09;5.07;;;2.37;;
5414;SDS011;2730;51.512;7.504;2022-07-29T06:27:36;7.47;;;2.90;;
5414;SDS011;2730;51.512;7.504;2022-07-29T06:30:04;13.43;;;2.93;;
5414;SDS011;2730;51.512;7.504;2022-07-29T06:32:32;8.83;;;3.20;;
5414;SDS011;2730;51.512;7.504;2022-07-29T06:34:59;11.03;;;2.70;;
5414;SDS011;2730;51.512;7.504;2022-07-29T06:37:26;8.10;;;1.80;;
5414;SDS011;2730;51.512;7.504;2022-07-29T06:39:53;11.60;;;2.60;;
5414;SDS011;2730;51.512;7.504;2022-07-29T06:42:35;5.03;;;3.00;;
5414;SDS011;2730;51.512;7.504;2022-07-29T06:45:02;10.17;;;2.50;;
5414;SDS011;2730;51.512;7.504;2022-07-29T06:47:29;8.97;;;2.90;;
5414;SDS011;2730;51.512;7.504;2022-07-29T06:49:56;5.13;;;2.80;;
5414;SDS011;2730;51.512;7.504;2022-07-29T06:52:23;8.70;;;2.37;;
5414;SDS011;2730;51.512;7.504;2022-07-29T06:54:50;7.10;;;2.93;;
5414;SDS011;2730;51.512;7.504;2022-07-29T06:57:18;2.90;;;2.70;;
5414;SDS011;2730;51.512;7.504;2022-07-29T06:59:47;4.97;;;2.40;;
5414;SDS011;2730;51.512;7.504;2022-07-29T07:02:14;4.30;;;2.70;;
5414;SDS011;2730;51.512;7.504;2022-07-29T07:04:40;9.73;;;3.87;;
5414;SDS011;2730;51.512;7.504;2022-07-29T07:07:07;5.50;;;2.80;;
5414;SDS011;2730;51.512;7.504;2022-07-29T07:09:34;12.90;;;3.13;;
5414;SDS011;2730;51.512;7.504;2022-07-29T07:12:01;7.60;;;2.83;;
5414;SDS011;2730;51.512;7.504;2022-07-29T07:14:28;11.80;;;2.63;;
5414;SDS011;2730;51.512;7.504;2022-07-29T07:16:56;7.50;;;3.00;;
5414;SDS011;2730;51.512;7.504;2022-07-29T07:19:25;9.83;;;3.10;;
5414;SDS011;2730;51.512;7.504;2022-07-29T07:21:52;6.40;;;2.93;;
5414;SDS011;2730;51.512;7.504;2022-07-29T07:24:19;9.83;;;3.00;;
5414;SDS011;2730;51.512;7.504;2022-07-29T07:26:46;5.33;;;2.77;;
5414;SDS011;2730;51.512;7.504;2022-07-29T07:29:13;10.53;;;2.50;;
5414;SDS011;2730;51.512;7.504;2022-07-29T07:31:40;6.20;;;2.90;;
5414;SDS011;2730;51.512;7.504;2022-07-29T07:34:08;3.57;;;2.83;;
5414;SDS011;2730;51.512;7.504;2022-07-29T07:36:35;5.70;;;2.17;;
5414;SDS011;2730;51.512;7.504;2022-07-29T07:39:02;3.50;;;2.70;;
5414;SDS011;2730;51.512;7.504;2022-07-29T07:41:30;7.07;;;2.13;;
5414;SDS011;2730;51.512;7.504;2022-07-29T07:43:57;16.77;;;2.77;;
5414;SDS011;2730;51.512;7.504;2022-07-29T07:46:24;6.33;;;2.13;;
5414;SDS011;2730;51.512;7.504;2022-07-29T07:48:50;2.90;;;1.93;;
5414;SDS011;2730;51.512;7.504;2022-07-29T07:51:19;5.10;;;2.17;;
5414;SDS011;2730;51.512;7.504;2022-07-29T07:53:46;5.93;;;1.90;;
5414;SDS011;2730;51.512;7.504;2022-07-29T07:56:14;3.93;;;2.30;;
5414;SDS011;2730;51.512;7.504;2022-07-29T07:58:41;4.20;;;1.87;;
5414;SDS011;2730;51.512;7.504;2022-07-29T08:01:08;5.13;;;2.43;;
5414;SDS011;2730;51.512;7.504;2022-07-29T08:03:35;6.20;;;1.80;;
5414;SDS011;2730;51.512;7.504;2022-07-29T08:06:03;8.27;;;2.70;;
5414;SDS011;2730;51.512;7.504;2022-07-29T08:08:32;11.80;;;3.60;;
5414;SDS011;2730;51.512;7.504;2022-07-29T08:10:59;5.57;;;2.50;;
5414;SDS011;2730;51.512;7.504;2022-07-29T08:13:27;4.73;;;2.37;;
5414;SDS011;2730;51.512;7.504;2022-07-29T08:15:55;3.70;;;2.40;;
5414;SDS011;2730;51.512;7.504;2022-07-29T08:18:24;7.87;;;2.50;;
5414;SDS011;2730;51.512;7.504;2022-07-29T08:20:52;9.23;;;2.37;;
5414;SDS011;2730;51.512;7.504;2022-07-29T08:23:19;3.60;;;2.00;;
5414;SDS011;2730;51.512;7.504;2022-07-29T08:25:47;4.63;;;1.90;;
5414;SDS011;2730;51.512;7.504;2022-07-29T08:28:14;10.47;;;2.23;;
5414;SDS011;2730;51.512;7.504;2022-07-29T08:30:41;6.03;;;2.67;;
5414;SDS011;2730;51.512;7.504;2022-07-29T08:33:08;2.87;;;2.40;;
5414;SDS011;2730;51.512;7.504;2022-07-29T08:35:35;6.53;;;2.20;;
5414;SDS011;2730;51.512;7.504;2022-07-29T08:38:02;5.60;;;1.90;;
5414;SDS011;2730;51.512;7.504;2022-07-29T08:40:29;4.03;;;2.03;;
5414;SDS011;2730;51.512;7.504;2022-07-29T08:42:57;5.10;;;2.30;;
5414;SDS011;2730;51.512;7.504;2022-07-29T08:45:25;6.53;;;2.30;;
5414;SDS011;2730;51.512;7.504;2022-07-29T08:47:54;4.70;;;2.27;;
5414;SDS011;2730;51.512;7.504;2022-07-29T08:50:22;4.17;;;2.40;;
5414;SDS011;2730;51.512;7.504;2022-07-29T08:52:48;6.20;;;3.03;;
5414;SDS011;2730;51.512;7.504;2022-07-29T08:55:16;7.07;;;2.50;;
5414;SDS011;2730;51.512;7.504;2022-07-29T08:57:44;5.97;;;2.70;;
5414;SDS011;2730;51.512;7.504;2022-07-29T09:00:13;4.57;;;2.97;;
5414;SDS011;2730;51.512;7.504;2022-07-29T09:02:42;7.20;;;3.10;;
5414;SDS011;2730;51.512;7.504;2022-07-29T09:05:19;13.47;;;5.20;;
5414;SDS011;2730;51.512;7.504;2022-07-29T09:08:08;12.93;;;5.77;;
5414;SDS011;2730;51.512;7.504;2022-07-29T09:10:38;12.63;;;5.70;;
5414;SDS011;2730;51.512;7.504;2022-07-29T09:13:05;12.30;;;4.83;;
5414;SDS011;2730;51.512;7.504;2022-07-29T09:15:34;11.80;;;3.07;;
5414;SDS011;2730;51.512;7.504;2022-07-29T09:18:00;8.77;;;2.30;;
5414;SDS011;2730;51.512;7.504;2022-07-29T09:20:28;10.83;;;2.60;;
5414;SDS011;2730;51.512;7.504;2022-07-29T09:23:18;6.13;;;2.10;;
5414;SDS011;2730;51.512;7.504;2022-07-29T09:25:45;8.53;;;2.40;;
5414;SDS011;2730;51.512;7.504;2022-07-29T09:28:12;4.50;;;1.80;;
5414;SDS011;2730;51.512;7.504;2022-07-29T09:30:58;8.23;;;2.70;;
5414;SDS011;2730;51.512;7.504;2022-07-29T09:33:33;7.83;;;2.60;;
5414;SDS011;2730;51.512;7.504;2022-07-29T09:36:19;6.97;;;2.20;;
5414;SDS011;2730;51.512;7.504;2022-07-29T09:38:56;5.60;;;2.10;;
5414;SDS011;2730;51.512;7.504;2022-07-29T09:41:25;12.77;;;2.47;;
5414;SDS011;2730;51.512;7.504;2022-07-29T09:43:55;8.10;;;2.70;;
5414;SDS011;2730;51.512;7.504;2022-07-29T09:46:24;15.03;;;3.60;;
5414;SDS011;2730;51.512;7.504;2022-07-29T09:49:07;8.47;;;3.40;;
5414;SDS011;2730;51.512;7.504;2022-07-29T09:51:34;5.53;;;3.47;;
5414;SDS011;2730;51.512;7.504;2022-07-29T09:54:02;4.20;;;3.60;;
5414;SDS011;2730;51.512;7.504;2022-07-29T09:56:47;12.90;;;5.77;;
5414;SDS011;2730;51.512;7.504;2022-07-29T09:59:14;7.93;;;5.23;;
5414;SDS011;2730;51.512;7.504;2022-07-29T10:01:42;17.33;;;3.93;;
5414;SDS011;2730;51.512;7.504;2022-07-29T10:04:09;13.70;;;4.90;;
5414;SDS011;2730;51.512;7.504;2022-07-29T10:06:39;6.60;;;3.60;;
5414;SDS011;2730;51.512;7.504;2022-07-29T10:09:22;5.50;;;3.73;;
5414;SDS011;2730;51.512;7.504;2022-07-29T10:12:01;11.10;;;4.17;;
5414;SDS011;2730;51.512;7.504;2022-07-29T10:14:34;11.30;;;4.33;;
5414;SDS011;2730;51.512;7.504;2022-07-29T10:17:03;8.20;;;4.50;;
5414;SDS011;2730;51.512;7.504;2022-07-29T10:19:33;7.27;;;4.50;;
5414;SDS011;2730;51.512;7.504;2022-07-29T10:22:02;14.40;;;4.77;;
5414;SDS011;2730;51.512;7.504;2022-07-29T10:24:31;6.03;;;4.30;;
5414;SDS011;2730;51.512;7.504;2022-07-29T10:26:59;7.40;;;4.23;;
5414;SDS011;2730;51.512;7.504;2022-07-29T10:29:27;13.80;;;5.30;;
5414;SDS011;2730;51.512;7.504;2022-07-29T10:31:59;6.80;;;4.70;;
5414;SDS011;2730;51.512;7.504;2022-07-29T10:34:48;6.80;;;3.93;;
5414;SDS011;2730;51.512;7.504;2022-07-29T10:37:28;16.13;;;4.53;;
5414;SDS011;2730;51.512;7.504;2022-07-29T10:40:06;11.67;;;4.00;;
5414;SDS011;2730;51.512;7.504;2022-07-29T10:43:07;11.57;;;4.13;;
5414;SDS011;2730;51.512;7.504;2022-07-29T10:45:44;4.10;;;3.37;;
5414;SDS011;2730;51.512;7.504;2022-07-29T10:48:12;9.07;;;3.93;;
5414;SDS011;2730;51.512;7.504;2022-07-29T10:50:54;11.90;;;3.83;;
5414;SDS011;2730;51.512;7.504;2022-07-29T10:53:24;7.90;;;3.53;;
5414;SDS011;2730;51.512;7.504;2022-07-29T10:56:22;5.70;;;4.10;;
5414;SDS011;2730;51.512;7.504;2022-07-29T11:01:51;10.03;;;4.40;;
5414;SDS011;2730;51.512;7.504;2022-07-29T11:07:20;7.77;;;3.60;;
5414;SDS011;2730;51.512;7.504;2022-07-29T11:12:48;8.03;;;3.30;;
5414;SDS011;2730;51.512;7.504;2022-07-29T11:15:16;5.50;;;3.53;;
5414;SDS011;2730;51.512;7.504;2022-07-29T11:18:04;6.47;;;3.23;;
5414;SDS011;2730;51.512;7.504;2022-07-29T11:20:39;5.70;;;3.63;;
5414;SDS011;2730;51.512;7.504;2022-07-29T11:28:47;12.33;;;4.03;;
5414;SDS011;2730;51.512;7.504;2022-07-29T11:31:16;20.03;;;4.03;;
5414;SDS011;2730;51.512;7.504;2022-07-29T11:33:46;11.47;;;4.00;;
5414;SDS011;2730;51.512;7.504;2022-07-29T11:36:13;9.27;;;4.40;;
5414;SDS011;2730;51.512;7.504;2022-07-29T11:38:42;7.23;;;4.00;;
5414;SDS011;2730;51.512;7.504;2022-07-29T11:41:22;9.73;;;3.37;;
5414;SDS011;2730;51.512;7.504;2022-07-29T11:43:50;4.93;;;4.33;;
5414;SDS011;2730;51.512;7.504;2022-07-29T11:49:14;8.03;;;4.43;;
5414;SDS011;2730;51.512;7.504;2022-07-29T11:51:50;9.07;;;3.87;;
5414;SDS011;2730;51.512;7.504;2022-07-29T11:54:21;12.00;;;3.77;;
5414;SDS011;2730;51.512;7.504;2022-07-29T11:56:52;14.87;;;4.10;;
5414;SDS011;2730;51.512;7.504;2022-07-29T11:59:19;12.67;;;3.90;;
5414;SDS011;2730;51.512;7.504;2022-07-29T12:01:53;5.73;;;3.10;;
5414;SDS011;2730;51.512;7.504;2022-07-29T12:04:21;7.70;;;3.50;;
5414;SDS011;2730;51.512;7.504;2022-07-29T12:06:49;10.83;;;3.50;;
5414;SDS011;2730;51.512;7.504;2022-07-29T12:09:16;8.43;;;4.20;;
5414;SDS011;2730;51.512;7.504;2022-07-29T12:11:45;6.80;;;3.93;;
5414;SDS011;2730;51.512;7.504;2022-07-29T12:14:24;9.10;;;3.77;;
5414;SDS011;2730;51.512;7.504;2022-07-29T12:16:51;7.90;;;3.80;;
5414;SDS011;2730;51.512;7.504;2022-07-29T12:19:18;9.30;;;3.73;;
5414;SDS011;2730;51.512;7.504;2022-07-29T12:21:45;12.07;;;4.80;;
5414;SDS011;2730;51.512;7.504;2022-07-29T12:24:12;8.23;;;4.30;;
5414;SDS011;2730;51.512;7.504;2022-07-29T12:26:49;7.53;;;3.57;;
5414;SDS011;2730;51.512;7.504;2022-07-29T12:29:17;5.47;;;3.37;;
5414;SDS011;2730;51.512;7.504;2022-07-29T12:31:44;11.93;;;4.07;;
5414;SDS011;2730;51.512;7.504;2022-07-29T12:34:12;14.40;;;3.90;;
5414;SDS011;2730;51.512;7.504;2022-07-29T12:36:41;8.27;;;4.60;;
5414;SDS011;2730;51.512;7.504;2022-07-29T12:39:08;9.27;;;4.73;;
5414;SDS011;2730;51.512;7.504;2022-07-29T12:41:37;5.40;;;3.77;;
5414;SDS011;2730;51.512;7.504;2022-07-29T12:44:06;5.70;;;3.87;;
5414;SDS011;2730;51.512;7.504;2022-07-29T12:46:32;10.20;;;4.17;;
5414;SDS011;2730;51.512;7.504;2022-07-29T12:48:59;7.60;;;4.10;;
5414;SDS011;2730;51.512;7.504;2022-07-29T12:51:30;8.53;;;4.40;;
5414;SDS011;2730;51.512;7.504;2022-07-29T12:54:04;7.33;;;4.70;;
5414;SDS011;2730;51.512;7.504;2022-07-29T12:56:33;9.10;;;5.20;;
5414;SDS011;2730;51.512;7.504;2022-07-29T12:59:00;14.47;;;4.47;;
5414;SDS011;2730;51.512;7.504;2022-07-29T13:01:44;9.93;;;4.63;;
5414;SDS011;2730;51.512;7.504;2022-07-29T13:04:23;9.57;;;5.40;;
5414;SDS011;2730;51.512;7.504;2022-07-29T13:06:57;5.60;;;4.50;;
5414;SDS011;2730;51.512;7.504;2022-07-29T13:09:35;9.03;;;4.60;;
5414;SDS011;2730;51.512;7.504;2022-07-29T13:12:05;6.17;;;3.90;;
5414;SDS011;2730;51.512;7.504;2022-07-29T13:14:36;14.40;;;4.53;;
5414;SDS011;2730;51.512;7.504;2022-07-29T13:17:05;5.47;;;4.40;;
5414;SDS011;2730;51.512;7.504;2022-07-29T13:19:34;6.57;;;4.70;;
5414;SDS011;2730;51.512;7.504;2022-07-29T13:22:03;7.23;;;4.37;;
5414;SDS011;2730;51.512;7.504;2022-07-29T13:24:30;9.27;;;5.57;;
5414;SDS011;2730;51.512;7.504;2022-07-29T13:26:57;18.50;;;5.93;;
5414;SDS011;2730;51.512;7.504;2022-07-29T13:29:24;9.77;;;5.87;;
5414;SDS011;2730;51.512;7.504;2022-07-29T13:31:52;7.53;;;6.00;;
5414;SDS011;2730;51.512;7.504;2022-07-29T13:34:20;7.67;;;6.00;;
5414;SDS011;2730;51.512;7.504;2022-07-29T13:36:49;9.47;;;5.90;;
5414;SDS011;2730;51.512;7.504;2022-07-29T13:39:15;10.57;;;5.57;;
5414;SDS011;2730;51.512;7.504;2022-07-29T13:41:42;8.23;;;5.77;;
5414;SDS011;2730;51.512;7.504;2022-07-29T13:44:09;15.53;;;5.57;;
5414;SDS011;2730;51.512;7.504;2022-07-29T13:46:36;10.10;;;5.37;;
5414;SDS011;2730;51.512;7.504;2022-07-29T13:49:04;10.00;;;5.37;;
5414;SDS011;2730;51.512;7.504;2022-07-29T13:51:31;5.30;;;4.57;;
5414;SDS011;2730;51.512;7.504;2022-07-29T13:53:58;8.13;;;5.00;;
5414;SDS011;2730;51.512;7.504;2022-07-29T13:56:25;7.57;;;4.70;;
5414;SDS011;2730;51.512;7.504;2022-07-29T13:58:52;9.00;;;4.70;;
5414;SDS011;2730;51.512;7.504;2022-07-29T14:01:19;14.47;;;4.23;;
5414;SDS011;2730;51.512;7.504;2022-07-29T14:03:45;14.77;;;3.80;;
5414;SDS011;2730;51.512;7.504;2022-07-29T14:06:14;7.40;;;3.90;;
5414;SDS011;2730;51.512;7.504;2022-07-29T14:08:41;7.43;;;4.10;;
5414;SDS011;2730;51.512;7.504;2022-07-29T14:11:07;12.90;;;4.53;;
5414;SDS011;2730;51.512;7.504;2022-07-29T14:13:34;3.83;;;3.43;;
5414;SDS011;2730;51.512;7.504;2022-07-29T14:16:01;5.83;;;3.97;;
5414;SDS011;2730;51.512;7.504;2022-07-29T14:18:28;4.33;;;3.30;;
5414;SDS011;2730;51.512;7.504;2022-07-29T14:20:55;8.47;;;3.57;;
5414;SDS011;2730;51.512;7.504;2022-07-29T14:23:24;8.23;;;3.80;;
5414;SDS011;2730;51.512;7.504;2022-07-29T14:25:51;11.03;;;3.63;;
5414;SDS011;2730;51.512;7.504;2022-07-29T14:28:18;4.50;;;3.20;;
5414;SDS011;2730;51.512;7.504;2022-07-29T14:30:45;8.13;;;3.40;;
5414;SDS011;2730;51.512;7.504;2022-07-29T14:33:12;8.37;;;2.90;;
5414;SDS011;2730;51.512;7.504;2022-07-29T14:35:39;5.13;;;2.97;;
5414;SDS011;2730;51.512;7.504;2022-07-29T14:38:06;11.77;;;4.10;;
5414;SDS011;2730;51.512;7.504;2022-07-29T14:40:34;5.53;;;3.30;;
5414;SDS011;2730;51.512;7.504;2022-07-29T14:43:01;5.80;;;3.30;;
5414;SDS011;2730;51.512;7.504;2022-07-29T14:45:28;8.00;;;3.97;;
5414;SDS011;2730;51.512;7.504;2022-07-29T14:47:56;5.23;;;3.00;;
5414;SDS011;2730;51.512;7.504;2022-07-29T14:50:24;7.30;;;3.50;;
5414;SDS011;2730;51.512;7.504;2022-07-29T14:52:52;5.77;;;3.90;;
5414;SDS011;2730;51.512;7.504;2022-07-29T14:55:19;9.83;;;4.20;;
5414;SDS011;2730;51.512;7.504;2022-07-29T14:57:48;5.23;;;3.73;;
5414;SDS011;2730;51.512;7.504;2022-07-29T15:00:15;3.50;;;3.20;;
5414;SDS011;2730;51.512;7.504;2022-07-29T15:02:42;10.93;;;3.73;;
5414;SDS011;2730;51.512;7.504;2022-07-29T15:05:09;10.90;;;3.77;;
5414;SDS011;2730;51.512;7.504;2022-07-29T15:07:36;5.50;;;4.60;;
5414;SDS011;2730;51.512;7.504;2022-07-29T15:10:03;7.57;;;3.90;;
5414;SDS011;2730;51.512;7.504;2022-07-29T15:12:30;7.40;;;3.83;;
5414;SDS011;2730;51.512;7.504;2022-07-29T15:14:59;8.30;;;4.40;;
5414;SDS011;2730;51.512;7.504;2022-07-29T15:17:26;6.20;;;3.10;;
5414;SDS011;2730;51.512;7.504;2022-07-29T15:19:53;12.97;;;4.10;;
5414;SDS011;2730;51.512;7.504;2022-07-29T15:22:19;4.00;;;3.60;;
5414;SDS011;2730;51.512;7.504;2022-07-29T15:24:46;6.73;;;4.50;;
5414;SDS011;2730;51.512;7.504;2022-07-29T15:27:13;5.00;;;4.23;;
5414;SDS011;2730;51.512;7.504;2022-07-29T15:29:40;6.73;;;3.77;;
5414;SDS011;2730;51.512;7.504;2022-07-29T15:32:08;7.03;;;3.90;;
5414;SDS011;2730;51.512;7.504;2022-07-29T15:34:36;7.10;;;4.97;;
5414;SDS011;2730;51.512;7.504;2022-07-29T15:37:04;6.73;;;3.70;;
5414;SDS011;2730;51.512;7.504;2022-07-29T15:39:31;4.60;;;4.20;;
5414;SDS011;2730;51.512;7.504;2022-07-29T15:41:58;6.80;;;4.73;;
5414;SDS011;2730;51.512;7.504;2022-07-29T15:44:25;16.97;;;5.17;;
5414;SDS011;2730;51.512;7.504;2022-07-29T15:46:52;5.10;;;4.10;;
5414;SDS011;2730;51.512;7.504;2022-07-29T15:49:33;8.47;;;4.20;;
5414;SDS011;2730;51.512;7.504;2022-07-29T15:52:02;9.20;;;5.00;;
5414;SDS011;2730;51.512;7.504;2022-07-29T15:54:32;10.17;;;5.17;;
5414;SDS011;2730;51.512;7.504;2022-07-29T15:56:59;7.30;;;4.20;;
5414;SDS011;2730;51.512;7.504;2022-07-29T15:59:27;4.93;;;3.93;;
5414;SDS011;2730;51.512;7.504;2022-07-29T16:01:54;5.57;;;3.83;;
5414;SDS011;2730;51.512;7.504;2022-07-29T16:04:21;12.10;;;5.00;;
5414;SDS011;2730;51.512;7.504;2022-07-29T16:06:49;6.80;;;4.07;;
5414;SDS011;2730;51.512;7.504;2022-07-29T16:09:16;6.00;;;4.30;;
5414;SDS011;2730;51.512;7.504;2022-07-29T16:11:43;6.20;;;4.17;;
5414;SDS011;2730;51.512;7.504;2022-07-29T16:14:12;12.80;;;4.43;;
5414;SDS011;2730;51.512;7.504;2022-07-29T16:16:39;4.63;;;3.30;;
5414;SDS011;2730;51.512;7.504;2022-07-29T16:19:06;8.33;;;3.73;;
5414;SDS011;2730;51.512;7.504;2022-07-29T16:21:34;7.60;;;4.00;;
5414;SDS011;2730;51.512;7.504;2022-07-29T16:24:03;7.13;;;4.00;;
5414;SDS011;2730;51.512;7.504;2022-07-29T16:26:31;5.33;;;4.30;;
5414;SDS011;2730;51.512;7.504;2022-07-29T16:28:58;4.43;;;3.67;;
5414;SDS011;2730;51.512;7.504;2022-07-29T16:31:25;6.37;;;3.97;;
5414;SDS011;2730;51.512;7.504;2022-07-29T16:33:52;5.40;;;3.40;;
5414;SDS011;2730;51.512;7.504;2022-07-29T16:36:19;7.13;;;3.70;;
5414;SDS011;2730;51.512;7.504;2022-07-29T16:38:47;5.57;;;3.13;;
5414;SDS011;2730;51.512;7.504;2022-07-29T16:41:15;12.53;;;3.60;;
5414;SDS011;2730;51.512;7.504;2022-07-29T16:43:42;5.90;;;3.90;;
5414;SDS011;2730;51.512;7.504;2022-07-29T16:46:09;9.27;;;3.97;;
5414;SDS011;2730;51.512;7.504;2022-07-29T16:48:36;6.57;;;3.90;;
5414;SDS011;2730;51.512;7.504;2022-07-29T16:51:03;6.97;;;3.80;;
5414;SDS011;2730;51.512;7.504;2022-07-29T16:53:30;5.57;;;3.60;;
5414;SDS011;2730;51.512;7.504;2022-07-29T16:55:57;8.40;;;3.50;;
5414;SDS011;2730;51.512;7.504;2022-07-29T16:58:26;5.77;;;3.67;;
5414;SDS011;2730;51.512;7.504;2022-07-29T17:00:53;5.07;;;2.97;;
5414;SDS011;2730;51.512;7.504;2022-07-29T17:03:20;7.20;;;3.70;;
5414;SDS011;2730;51.512;7.504;2022-07-29T17:05:47;8.03;;;3.00;;
5414;SDS011;2730;51.512;7.504;2022-07-29T17:08:14;18.37;;;3.60;;
5414;SDS011;2730;51.512;7.504;2022-07-29T17:10:41;7.80;;;2.97;;
5414;SDS011;2730;51.512;7.504;2022-07-29T17:13:07;4.30;;;3.33;;
5414;SDS011;2730;51.512;7.504;2022-07-29T17:15:36;4.37;;;2.87;;
5414;SDS011;2730;51.512;7.504;2022-07-29T17:18:03;7.77;;;2.97;;
5414;SDS011;2730;51.512;7.504;2022-07-29T17:20:29;8.40;;;3.50;;
5414;SDS011;2730;51.512;7.504;2022-07-29T17:22:57;8.23;;;2.60;;
5414;SDS011;2730;51.512;7.504;2022-07-29T17:25:24;3.87;;;3.13;;
5414;SDS011;2730;51.512;7.504;2022-07-29T17:27:50;5.43;;;2.90;;
5414;SDS011;2730;51.512;7.504;2022-07-29T17:30:19;5.53;;;3.20;;
5414;SDS011;2730;51.512;7.504;2022-07-29T17:32:48;5.50;;;3.20;;
5414;SDS011;2730;51.512;7.504;2022-07-29T17:35:15;6.13;;;3.43;;
5414;SDS011;2730;51.512;7.504;2022-07-29T17:37:59;3.63;;;2.83;;
5414;SDS011;2730;51.512;7.504;2022-07-29T17:40:26;5.03;;;3.23;;
5414;SDS011;2730;51.512;7.504;2022-07-29T17:42:53;6.67;;;2.83;;
5414;SDS011;2730;51.512;7.504;2022-07-29T17:45:20;10.60;;;3.47;;
5414;SDS011;2730;51.512;7.504;2022-07-29T17:47:48;5.33;;;3.00;;
5414;SDS011;2730;51.512;7.504;2022-07-29T17:50:15;8.80;;;3.10;;
5414;SDS011;2730;51.512;7.504;2022-07-29T17:52:42;5.40;;;3.43;;
5414;SDS011;2730;51.512;7.504;2022-07-29T17:55:08;6.43;;;3.10;;
5414;SDS011;2730;51.512;7.504;2022-07-29T17:57:37;6.47;;;3.43;;
5414;SDS011;2730;51.512;7.504;2022-07-29T18:00:04;5.23;;;3.50;;
5414;SDS011;2730;51.512;7.504;2022-07-29T18:02:33;4.00;;;2.90;;
5414;SDS011;2730;51.512;7.504;2022-07-29T18:05:02;9.23;;;3.20;;
5414;SDS011;2730;51.512;7.504;2022-07-29T18:07:30;5.63;;;2.90;;
5414;SDS011;2730;51.512;7.504;2022-07-29T18:09:56;6.87;;;3.10;;
5414;SDS011;2730;51.512;7.504;2022-07-29T18:12:23;4.17;;;2.40;;
5414;SDS011;2730;51.512;7.504;2022-07-29T18:14:50;3.73;;;3.03;;
5414;SDS011;2730;51.512;7.504;2022-07-29T18:17:17;5.17;;;2.50;;
5414;SDS011;2730;51.512;7.504;2022-07-29T18:19:44;4.70;;;3.07;;
5414;SDS011;2730;51.512;7.504;2022-07-29T18:22:13;7.37;;;2.80;;
5414;SDS011;2730;51.512;7.504;2022-07-29T18:24:41;8.47;;;3.40;;
5414;SDS011;2730;51.512;7.504;2022-07-29T18:27:07;12.13;;;3.00;;
5414;SDS011;2730;51.512;7.504;2022-07-29T18:29:34;7.23;;;2.93;;
5414;SDS011;2730;51.512;7.504;2022-07-29T18:32:03;8.43;;;2.73;;
5414;SDS011;2730;51.512;7.504;2022-07-29T18:34:35;5.47;;;2.57;;
5414;SDS011;2730;51.512;7.504;2022-07-29T18:37:03;6.10;;;3.10;;
5414;SDS011;2730;51.512;7.504;2022-07-29T18:39:31;8.13;;;2.40;;
5414;SDS011;2730;51.512;7.504;2022-07-29T18:42:00;2.63;;;2.40;;
5414;SDS011;2730;51.512;7.504;2022-07-29T18:44:35;3.93;;;2.90;;
5414;SDS011;2730;51.512;7.504;2022-07-29T18:47:06;3.67;;;2.33;;
5414;SDS011;2730;51.512;7.504;2022-07-29T18:49:33;7.30;;;3.00;;
5414;SDS011;2730;51.512;7.504;2022-07-29T18:52:02;6.57;;;3.20;;
5414;SDS011;2730;51.512;7.504;2022-07-29T18:54:37;6.60;;;2.63;;
5414;SDS011;2730;51.512;7.504;2022-07-29T18:57:06;4.73;;;3.47;;
5414;SDS011;2730;51.512;7.504;2022-07-29T18:59:33;2.87;;;2.67;;
5414;SDS011;2730;51.512;7.504;2022-07-29T19:02:00;7.23;;;3.50;;
5414;SDS011;2730;51.512;7.504;2022-07-29T19:04:27;5.83;;;2.93;;
5414;SDS011;2730;51.512;7.504;2022-07-29T19:06:54;10.97;;;3.10;;
5414;SDS011;2730;51.512;7.504;2022-07-29T19:09:28;6.40;;;2.60;;
5414;SDS011;2730;51.512;7.504;2022-07-29T19:11:56;6.60;;;3.70;;
5414;SDS011;2730;51.512;7.504;2022-07-29T19:14:26;5.87;;;3.30;;
5414;SDS011;2730;51.512;7.504;2022-07-29T19:16:55;10.10;;;4.13;;
5414;SDS011;2730;51.512;7.504;2022-07-29T19:19:22;3.93;;;3.20;;
5414;SDS011;2730;51.512;7.504;2022-07-29T19:21:51;6.10;;;3.00;;
5414;SDS011;2730;51.512;7.504;2022-07-29T19:24:17;8.03;;;3.90;;
5414;SDS011;2730;51.512;7.504;2022-07-29T19:26:55;7.57;;;3.80;;
5414;SDS011;2730;51.512;7.504;2022-07-29T19:29:33;6.77;;;3.40;;
5414;SDS011;2730;51.512;7.504;2022-07-29T19:32:24;4.70;;;3.47;;
5414;SDS011;2730;51.512;7.504;2022-07-29T19:35:14;4.67;;;3.27;;
5414;SDS011;2730;51.512;7.504;2022-07-29T19:37:52;6.63;;;2.90;;
5414;SDS011;2730;51.512;7.504;2022-07-29T19:40:24;4.10;;;3.70;;
5414;SDS011;2730;51.512;7.504;2022-07-29T19:42:57;5.53;;;3.30;;
5414;SDS011;2730;51.512;7.504;2022-07-29T19:45:24;5.90;;;2.73;;
5414;SDS011;2730;51.512;7.504;2022-07-29T19:47:52;4.27;;;2.93;;
5414;SDS011;2730;51.512;7.504;2022-07-29T19:50:26;6.33;;;3.23;;
5414;SDS011;2730;51.512;7.504;2022-07-29T19:53:09;5.40;;;3.20;;
5414;SDS011;2730;51.512;7.504;2022-07-29T19:55:36;7.23;;;3.60;;
5414;SDS011;2730;51.512;7.504;2022-07-29T19:58:04;5.50;;;3.57;;
5414;SDS011;2730;51.512;7.504;2022-07-29T20:00:34;12.60;;;4.20;;
5414;SDS011;2730;51.512;7.504;2022-07-29T20:03:01;5.13;;;3.60;;
5414;SDS011;2730;51.512;7.504;2022-07-29T20:05:34;8.30;;;4.00;;
5414;SDS011;2730;51.512;7.504;2022-07-29T20:08:02;15.33;;;4.07;;
5414;SDS011;2730;51.512;7.504;2022-07-29T20:10:30;7.33;;;3.73;;
5414;SDS011;2730;51.512;7.504;2022-07-29T20:12:57;9.93;;;3.87;;
5414;SDS011;2730;51.512;7.504;2022-07-29T20:15:25;5.00;;;3.80;;
5414;SDS011;2730;51.512;7.504;2022-07-29T20:17:52;10.50;;;3.47;;
5414;SDS011;2730;51.512;7.504;2022-07-29T20:20:19;8.63;;;3.97;;
5414;SDS011;2730;51.512;7.504;2022-07-29T20:22:47;8.88;;;4.15;;
5414;SDS011;2730;51.512;7.504;2022-07-29T20:25:14;8.50;;;4.60;;
5414;SDS011;2730;51.512;7.504;2022-07-29T20:27:40;6.53;;;3.67;;
5414;SDS011;2730;51.512;7.504;2022-07-29T20:30:07;6.50;;;4.70;;
5414;SDS011;2730;51.512;7.504;2022-07-29T20:32:38;7.27;;;4.53;;
5414;SDS011;2730;51.512;7.504;2022-07-29T20:35:06;8.50;;;4.27;;
5414;SDS011;2730;51.512;7.504;2022-07-29T20:37:34;7.20;;;3.70;;
5414;SDS011;2730;51.512;7.504;2022-07-29T20:40:00;12.00;;;4.47;;
5414;SDS011;2730;51.512;7.504;2022-07-29T20:42:27;7.20;;;3.77;;
5414;SDS011;2730;51.512;7.504;2022-07-29T20:44:54;9.23;;;4.33;;